Time;durP1;ratioP1;P1;durP2;ratioP2;P2;SDS_P1;SDS_P2;PMS_P1;PMS_P2;Temp;Humidity;BMP_temperature;BMP_pressure;BME280_temperature;BME280_humidity;BME280_pressure;Samples;Min_cycle;Max_cycle;Signal;HPM_P1;HPM_P2
2024/01/07 00:00:00;;;;;;;34.70;19.57;;;4.70;99.90;;;;;;5113920;27;20467;-73
2024/01/07 00:02:26;;;;;;;35.70;20.00;;;4.70;99.90;;;;;;5114068;27;20177;-73
2024/01/07 00:04:51;;;;;;;34.70;19.17;;;4.70;99.90;;;;;;5114201;27;20513;-73
2024/01/07 00:07:17;;;;;;;39.03;20.47;;;4.60;99.90;;;;;;5132235;27;20679;-73
2024/01/07 00:09:42;;;;;;;40.20;20.13;;;4.70;99.90;;;;;;5113383;27;20189;-73
2024/01/07 00:12:08;;;;;;;34.77;20.33;;;4.60;99.90;;;;;;5132365;27;20191;-73
2024/01/07 00:14:34;;;;;;;34.67;19.50;;;4.60;99.90;;;;;;5132039;27;20185;-73
2024/01/07 00:16:59;;;;;;;40.63;20.57;;;4.70;99.90;;;;;;5131707;27;20235;-73
2024/01/07 00:19:25;;;;;;;36.47;19.23;;;4.70;99.90;;;;;;5131647;27;20210;-73
2024/01/07 00:21:50;;;;;;;34.47;18.70;;;4.70;99.90;;;;;;5131783;27;20652;-73
2024/01/07 00:24:16;;;;;;;35.20;20.37;;;4.70;99.90;;;;;;5096088;27;20557;-74
2024/01/07 00:26:42;;;;;;;31.50;17.73;;;4.70;99.90;;;;;;5131258;27;20943;-74
2024/01/07 00:29:07;;;;;;;33.70;18.83;;;4.60;99.90;;;;;;5112692;27;20210;-74
2024/01/07 00:31:33;;;;;;;32.10;18.83;;;4.60;99.90;;;;;;5112998;27;20185;-74
2024/01/07 00:33:59;;;;;;;30.57;18.67;;;4.50;99.90;;;;;;5112967;27;20216;-73
2024/01/07 00:36:24;;;;;;;27.87;18.10;;;4.50;99.90;;;;;;5112743;27;20220;-73
2024/01/07 00:38:50;;;;;;;37.70;20.70;;;4.50;99.90;;;;;;5112927;27;20829;-72
2024/01/07 00:41:16;;;;;;;36.10;19.60;;;4.50;99.90;;;;;;5131156;27;20673;-72
2024/01/07 00:43:41;;;;;;;37.37;20.00;;;4.50;99.90;;;;;;5112733;27;20177;-72
2024/01/07 00:46:07;;;;;;;34.93;20.80;;;4.60;99.90;;;;;;5112378;27;20554;-72
2024/01/07 00:48:33;;;;;;;44.90;20.40;;;4.60;99.90;;;;;;5131029;27;20216;-72
2024/01/07 00:50:58;;;;;;;35.73;20.53;;;4.60;99.90;;;;;;5130943;27;20259;-73
2024/01/07 00:53:24;;;;;;;35.77;19.90;;;4.60;99.90;;;;;;5095441;27;20196;-73
2024/01/07 00:55:49;;;;;;;38.57;21.53;;;4.60;99.90;;;;;;5130661;27;20307;-73
2024/01/07 00:58:15;;;;;;;41.23;20.93;;;4.60;99.90;;;;;;5112158;27;20205;-73
2024/01/07 01:00:40;;;;;;;34.43;18.77;;;4.70;99.90;;;;;;5130717;27;20550;-73
2024/01/07 01:03:06;;;;;;;45.40;21.67;;;4.70;99.90;;;;;;5130530;27;20204;-72
2024/01/07 01:05:32;;;;;;;34.37;19.33;;;4.60;99.90;;;;;;5130616;27;20179;-73
2024/01/07 01:07:57;;;;;;;41.23;19.23;;;4.60;99.90;;;;;;5111979;27;20208;-73
2024/01/07 01:10:23;;;;;;;37.57;21.00;;;4.60;99.90;;;;;;5130462;27;20180;-73
2024/01/07 01:12:48;;;;;;;41.00;20.23;;;4.60;99.90;;;;;;5111855;27;20964;-73
2024/01/07 01:15:16;;;;;;;31.87;19.30;;;4.60;99.90;;;;;;5130332;27;20248;-73
2024/01/07 01:17:42;;;;;;;32.63;19.40;;;4.60;99.90;;;;;;5130345;27;20690;-73
2024/01/07 01:20:08;;;;;;;37.33;20.17;;;4.60;99.90;;;;;;5130093;27;20418;-73
2024/01/07 01:22:34;;;;;;;43.03;21.17;;;4.50;99.90;;;;;;5111757;27;20418;-73
2024/01/07 01:25:00;;;;;;;37.47;19.37;;;4.50;99.90;;;;;;5130088;27;20421;-73
2024/01/07 01:27:25;;;;;;;36.83;20.47;;;4.50;99.90;;;;;;5130052;27;20686;-73
2024/01/07 01:29:51;;;;;;;37.13;19.57;;;4.50;99.90;;;;;;5111522;27;20267;-73
2024/01/07 01:32:17;;;;;;;38.13;21.33;;;4.50;99.90;;;;;;5130251;27;20194;-73
2024/01/07 01:34:42;;;;;;;36.83;19.90;;;4.50;99.90;;;;;;5111342;27;20185;-72
2024/01/07 01:37:11;;;;;;;40.43;21.00;;;4.50;99.90;;;;;;5129507;27;20213;-72
2024/01/07 01:39:40;;;;;;;35.17;21.47;;;4.60;99.90;;;;;;5111330;27;20250;-73
2024/01/07 01:42:06;;;;;;;37.23;20.90;;;4.60;99.90;;;;;;5111180;27;20429;-73
2024/01/07 01:44:32;;;;;;;39.30;20.83;;;4.60;99.90;;;;;;5129880;27;20422;-73
2024/01/07 01:47:00;;;;;;;40.00;21.33;;;4.60;99.90;;;;;;5111224;27;20213;-72
2024/01/07 01:49:26;;;;;;;35.83;21.33;;;4.50;99.90;;;;;;5129818;27;20176;-72
2024/01/07 01:51:52;;;;;;;38.93;22.13;;;4.50;99.90;;;;;;5111122;27;20419;-72
2024/01/07 01:54:18;;;;;;;43.37;21.07;;;4.50;99.90;;;;;;5110858;27;20503;-72
2024/01/07 01:56:44;;;;;;;47.92;21.38;;;4.50;99.90;;;;;;5111167;27;20873;-73
2024/01/07 01:59:11;;;;;;;41.23;21.97;;;4.50;99.90;;;;;;5129655;27;20660;-72
2024/01/07 02:01:37;;;;;;;39.37;21.67;;;4.60;99.90;;;;;;5129816;27;20405;-72
2024/01/07 02:04:03;;;;;;;46.77;23.43;;;4.60;99.90;;;;;;5129422;27;20472;-72
2024/01/07 02:06:28;;;;;;;46.20;23.13;;;4.60;99.90;;;;;;5111242;27;20212;-72
2024/01/07 02:08:55;;;;;;;48.90;23.97;;;4.50;99.90;;;;;;5111028;27;20932;-72
2024/01/07 02:11:21;;;;;;;47.53;22.10;;;4.50;99.90;;;;;;5110997;27;20549;-72
2024/01/07 02:13:47;;;;;;;52.63;23.50;;;4.50;99.90;;;;;;5129283;27;20491;-72
2024/01/07 02:16:13;;;;;;;49.00;22.50;;;4.50;99.90;;;;;;5110717;28;20456;-72
2024/01/07 02:18:41;;;;;;;48.70;23.23;;;4.50;99.90;;;;;;5111096;27;20437;-72
2024/01/07 02:21:07;;;;;;;51.90;22.97;;;4.50;99.90;;;;;;5130061;27;20963;-73
2024/01/07 02:23:33;;;;;;;47.90;22.47;;;4.40;99.90;;;;;;5129262;27;20407;-73
2024/01/07 02:25:58;;;;;;;43.20;21.97;;;4.40;99.90;;;;;;5129238;27;20964;-73
2024/01/07 02:28:24;;;;;;;46.57;22.80;;;4.40;99.90;;;;;;5110767;28;20212;-73
2024/01/07 02:30:50;;;;;;;42.30;21.47;;;4.50;99.90;;;;;;5110832;28;20275;-73
2024/01/07 02:33:15;;;;;;;39.57;20.47;;;4.50;99.90;;;;;;5110788;28;20189;-73
2024/01/07 02:35:41;;;;;;;43.63;23.30;;;4.50;99.90;;;;;;5129021;28;20208;-73
2024/01/07 02:38:06;;;;;;;54.57;22.63;;;4.50;99.90;;;;;;5129121;28;20208;-73
2024/01/07 02:40:32;;;;;;;39.37;20.60;;;4.50;99.90;;;;;;5093759;28;20230;-73
2024/01/07 02:42:58;;;;;;;43.17;20.17;;;4.50;99.90;;;;;;5110690;28;20180;-73
2024/01/07 02:45:24;;;;;;;46.60;21.70;;;4.50;99.90;;;;;;5129389;28;20175;-73
2024/01/07 02:47:49;;;;;;;37.20;18.40;;;4.50;99.90;;;;;;5129203;28;20802;-73
2024/01/07 02:50:16;;;;;;;42.40;20.80;;;4.50;99.90;;;;;;5131583;27;20502;-73
2024/01/07 02:52:42;;;;;;;43.20;21.50;;;4.40;99.90;;;;;;5114576;27;20188;-72
2024/01/07 02:55:08;;;;;;;45.57;22.47;;;4.50;99.90;;;;;;5114924;27;20441;-73
2024/01/07 02:57:34;;;;;;;35.43;20.20;;;4.50;99.90;;;;;;5133021;27;20918;-73
2024/01/07 02:59:59;;;;;;;38.60;20.83;;;4.40;99.90;;;;;;5133179;27;20497;-73
2024/01/07 03:02:25;;;;;;;42.00;19.57;;;4.50;99.90;;;;;;5114648;27;20180;-73
2024/01/07 03:04:50;;;;;;;37.10;18.40;;;4.40;99.90;;;;;;5114379;27;20189;-73
2024/01/07 03:07:16;;;;;;;41.27;20.03;;;4.40;99.90;;;;;;5132970;27;20205;-73
2024/01/07 03:09:41;;;;;;;44.00;19.83;;;4.40;99.90;;;;;;5114534;27;20556;-72
2024/01/07 03:12:07;;;;;;;38.63;19.90;;;4.40;99.90;;;;;;5114560;27;20177;-72
2024/01/07 03:14:33;;;;;;;37.07;19.43;;;4.40;99.90;;;;;;5132991;27;20191;-73
2024/01/07 03:16:58;;;;;;;37.53;19.83;;;4.40;99.90;;;;;;5132736;27;20215;-73
2024/01/07 03:19:24;;;;;;;44.70;20.20;;;4.40;99.90;;;;;;5114197;27;20181;-72
2024/01/07 03:21:50;;;;;;;40.33;20.50;;;4.50;99.90;;;;;;5132906;27;20560;-73
2024/01/07 03:24:15;;;;;;;45.30;21.77;;;4.40;99.90;;;;;;5132885;27;20183;-73
2024/01/07 03:26:41;;;;;;;38.03;21.37;;;4.40;99.90;;;;;;5114217;27;20500;-73
2024/01/07 03:29:07;;;;;;;40.07;20.67;;;4.40;99.90;;;;;;5114164;27;20274;-72
2024/01/07 03:31:33;;;;;;;39.22;20.17;;;4.50;99.90;;;;;;5114255;27;20175;-73
2024/01/07 03:33:58;;;;;;;43.60;20.80;;;4.50;99.90;;;;;;5132672;27;20184;-73
2024/01/07 03:36:24;;;;;;;39.83;19.97;;;4.50;99.90;;;;;;5132412;27;20224;-73
2024/01/07 03:38:50;;;;;;;33.13;18.17;;;4.50;99.90;;;;;;5132487;27;20243;-73
2024/01/07 03:41:20;;;;;;;44.37;19.83;;;4.50;99.90;;;;;;5132606;27;20179;-73
2024/01/07 03:43:49;;;;;;;33.70;19.50;;;4.50;99.90;;;;;;5132409;27;20187;-73
2024/01/07 03:46:14;;;;;;;32.95;17.08;;;4.50;99.90;;;;;;5132518;27;20699;-73
2024/01/07 03:48:41;;;;;;;40.30;18.20;;;4.40;99.90;;;;;;5132239;27;20687;-73
2024/01/07 03:51:07;;;;;;;34.17;18.63;;;4.40;99.90;;;;;;5114799;27;20452;-73
2024/01/07 03:53:33;;;;;;;41.13;20.00;;;4.40;99.90;;;;;;5114380;27;20912;-73
2024/01/07 03:55:58;;;;;;;42.85;18.90;;;4.40;99.90;;;;;;5132731;27;20211;-74
2024/01/07 03:58:24;;;;;;;36.93;18.63;;;4.50;99.90;;;;;;5097045;27;20295;-73
2024/01/07 04:00:50;;;;;;;39.43;18.30;;;4.50;99.90;;;;;;5113540;27;20180;-72
2024/01/07 04:03:15;;;;;;;34.40;18.40;;;4.40;99.90;;;;;;5113994;27;20211;-73
2024/01/07 04:05:41;;;;;;;32.43;18.53;;;4.40;99.90;;;;;;5132561;27;20238;-74
2024/01/07 04:08:10;;;;;;;36.43;16.90;;;4.40;99.90;;;;;;5113796;27;20211;-73
2024/01/07 04:10:36;;;;;;;34.17;18.00;;;4.40;99.90;;;;;;5113733;27;20268;-73
2024/01/07 04:13:01;;;;;;;34.30;17.43;;;4.30;99.90;;;;;;5131769;27;20428;-73
2024/01/07 04:15:27;;;;;;;39.13;18.40;;;4.30;99.90;;;;;;5113386;27;20527;-72
2024/01/07 04:17:52;;;;;;;39.23;18.03;;;4.30;99.90;;;;;;5131637;27;20274;-72
2024/01/07 04:20:18;;;;;;;37.63;17.60;;;4.30;99.90;;;;;;5132304;27;20225;-73
2024/01/07 04:22:44;;;;;;;37.10;17.67;;;4.30;99.90;;;;;;5096698;27;20243;-74
2024/01/07 04:25:10;;;;;;;37.90;17.70;;;4.30;99.90;;;;;;5132313;27;20238;-74
2024/01/07 04:27:36;;;;;;;34.40;17.10;;;4.30;99.90;;;;;;5131839;27;20199;-73
2024/01/07 04:30:03;;;;;;;36.67;17.63;;;4.20;99.90;;;;;;5132120;27;20431;-73
2024/01/07 04:32:28;;;;;;;32.07;17.03;;;4.20;99.90;;;;;;5131814;27;20460;-73
2024/01/07 04:34:54;;;;;;;35.53;17.40;;;4.30;99.90;;;;;;5131705;27;20433;-73
2024/01/07 04:37:20;;;;;;;42.57;18.80;;;4.20;99.90;;;;;;5132041;27;20215;-74
2024/01/07 04:39:45;;;;;;;31.93;17.60;;;4.20;99.90;;;;;;5096148;27;20195;-74
2024/01/07 04:42:11;;;;;;;42.47;17.80;;;4.20;99.90;;;;;;5131230;27;20272;-74
2024/01/07 04:44:36;;;;;;;37.47;18.37;;;4.30;99.90;;;;;;5131557;27;20188;-73
2024/01/07 04:47:02;;;;;;;32.83;17.57;;;4.20;99.90;;;;;;5131643;27;20233;-73
2024/01/07 04:49:28;;;;;;;29.47;17.37;;;4.30;99.90;;;;;;5131774;27;20183;-73
2024/01/07 04:51:53;;;;;;;28.37;16.53;;;4.30;99.90;;;;;;5131615;27;20555;-73
2024/01/07 04:54:19;;;;;;;30.33;16.43;;;4.20;99.90;;;;;;5131735;27;20242;-73
2024/01/07 04:56:44;;;;;;;28.43;14.80;;;4.20;99.90;;;;;;5131433;27;20266;-73
2024/01/07 04:59:10;;;;;;;24.93;15.17;;;4.10;99.90;;;;;;5131483;27;20183;-73
2024/01/07 05:01:36;;;;;;;32.00;16.00;;;4.10;99.90;;;;;;5096018;27;20184;-73
2024/01/07 05:04:02;;;;;;;23.73;15.47;;;4.10;99.90;;;;;;5095864;27;20255;-73
2024/01/07 05:06:28;;;;;;;25.92;13.90;;;4.10;99.90;;;;;;5131113;27;20199;-73
2024/01/07 05:08:53;;;;;;;22.97;15.40;;;4.00;99.90;;;;;;5130873;27;20204;-73
2024/01/07 05:11:19;;;;;;;25.73;13.20;;;4.00;99.90;;;;;;5112177;27;20187;-73
2024/01/07 05:13:45;;;;;;;23.43;14.17;;;4.00;99.90;;;;;;5130215;27;20291;-74
2024/01/07 05:16:19;;;;;;;21.80;14.90;;;4.00;99.90;;;;;;5130915;27;20207;-74
2024/01/07 05:18:48;;;;;;;34.60;15.90;;;3.90;99.90;;;;;;5112325;27;20175;-74
2024/01/07 05:21:18;;;;;;;23.73;14.37;;;3.90;99.90;;;;;;5130623;27;20801;-73
2024/01/07 05:23:44;;;;;;;22.27;13.47;;;3.90;99.90;;;;;;5130626;27;20933;-72
2024/01/07 05:26:09;;;;;;;23.80;14.17;;;3.90;99.90;;;;;;5130713;27;20426;-73
2024/01/07 05:28:36;;;;;;;26.13;14.33;;;3.90;99.90;;;;;;5095197;27;20187;-74
2024/01/07 05:31:02;;;;;;;23.65;14.30;;;3.80;99.90;;;;;;5130389;27;20187;-73
2024/01/07 05:33:28;;;;;;;25.23;14.50;;;3.80;99.90;;;;;;5130130;27;20270;-73
2024/01/07 05:35:53;;;;;;;25.63;14.37;;;3.80;99.90;;;;;;5111725;27;20381;-72
2024/01/07 05:38:19;;;;;;;21.70;15.20;;;3.80;99.90;;;;;;5094542;27;20218;-73
2024/01/07 05:40:44;;;;;;;23.40;15.00;;;3.80;99.90;;;;;;5111401;27;20179;-73
2024/01/07 05:43:10;;;;;;;19.17;13.33;;;3.80;99.90;;;;;;5129795;27;20179;-73
2024/01/07 05:45:35;;;;;;;24.77;14.50;;;3.80;99.90;;;;;;5130086;27;20183;-74
2024/01/07 05:48:01;;;;;;;25.20;14.80;;;3.80;99.90;;;;;;5111422;27;20228;-73
2024/01/07 05:50:26;;;;;;;20.10;13.90;;;3.80;99.90;;;;;;5111435;27;20667;-73
2024/01/07 05:52:52;;;;;;;31.60;15.43;;;3.70;99.90;;;;;;5111327;27;20209;-72
2024/01/07 05:55:18;;;;;;;21.63;14.03;;;3.70;99.90;;;;;;5111495;27;20191;-73
2024/01/07 05:57:43;;;;;;;26.43;15.30;;;3.70;99.90;;;;;;5129648;27;20215;-73
2024/01/07 06:00:10;;;;;;;22.93;14.67;;;3.80;99.90;;;;;;5129916;27;20651;-73
2024/01/07 06:02:36;;;;;;;26.23;14.55;;;3.80;99.90;;;;;;5111570;27;20202;-72
2024/01/07 06:05:03;;;;;;;26.43;14.77;;;3.80;99.90;;;;;;5129938;27;20785;-74
2024/01/07 06:07:29;;;;;;;25.23;15.07;;;3.80;99.90;;;;;;5129905;27;20210;-73
2024/01/07 06:09:55;;;;;;;23.75;14.43;;;3.80;99.90;;;;;;5111596;27;20824;-73
2024/01/07 06:12:20;;;;;;;26.10;14.70;;;3.80;99.90;;;;;;5130334;27;20195;-73
2024/01/07 06:14:46;;;;;;;27.87;14.43;;;3.80;99.90;;;;;;5130226;27;20179;-74
2024/01/07 06:17:11;;;;;;;21.50;14.23;;;3.80;99.90;;;;;;5130020;27;20232;-73
2024/01/07 06:19:37;;;;;;;22.83;13.80;;;3.80;99.90;;;;;;5130138;27;20184;-73
2024/01/07 06:22:03;;;;;;;23.67;14.17;;;3.80;99.90;;;;;;5111520;28;20192;-73
2024/01/07 06:24:28;;;;;;;21.97;14.30;;;3.80;99.90;;;;;;5129673;27;20722;-72
2024/01/07 06:26:54;;;;;;;22.83;14.40;;;3.80;99.90;;;;;;5129619;27;21066;-73
2024/01/07 06:29:20;;;;;;;26.53;14.60;;;3.80;99.90;;;;;;5111433;28;20181;-72
2024/01/07 06:31:45;;;;;;;20.83;13.50;;;3.70;99.90;;;;;;5129291;28;20187;-72
2024/01/07 06:34:13;;;;;;;21.43;13.20;;;3.70;99.90;;;;;;5129446;28;20221;-72
2024/01/07 06:36:42;;;;;;;26.30;14.65;;;3.70;99.90;;;;;;5111172;28;20262;-73
2024/01/07 06:39:08;;;;;;;23.35;14.80;;;3.70;99.90;;;;;;5129449;28;20174;-72
2024/01/07 06:41:34;;;;;;;26.60;15.20;;;3.70;99.90;;;;;;5094043;28;20673;-73
2024/01/07 06:44:00;;;;;;;28.40;16.10;;;3.70;99.90;;;;;;5110831;28;20182;-73
2024/01/07 06:46:26;;;;;;;28.63;13.97;;;3.60;99.90;;;;;;5110776;28;20209;-73
2024/01/07 06:48:51;;;;;;;24.40;15.10;;;3.70;99.90;;;;;;5110484;28;20187;-72
2024/01/07 06:51:17;;;;;;;20.80;14.20;;;3.70;99.90;;;;;;5129177;28;20190;-73
2024/01/07 06:53:43;;;;;;;26.87;16.13;;;3.70;99.90;;;;;;5111312;28;20182;-73
2024/01/07 06:56:08;;;;;;;26.30;17.10;;;3.70;99.90;;;;;;5110411;28;20229;-73
2024/01/07 06:58:34;;;;;;;36.47;19.80;;;3.60;99.90;;;;;;5110680;28;20175;-73
2024/01/07 07:00:59;;;;;;;21.97;14.97;;;3.70;99.90;;;;;;5093426;28;20241;-73
2024/01/07 07:03:25;;;;;;;25.70;16.10;;;3.70;99.90;;;;;;5129044;28;20614;-73
2024/01/07 07:05:51;;;;;;;27.23;16.37;;;3.70;99.90;;;;;;5128976;28;20179;-73
2024/01/07 07:08:16;;;;;;;23.57;16.33;;;3.70;99.90;;;;;;5093496;28;20233;-73
2024/01/07 07:10:42;;;;;;;22.03;14.43;;;3.70;99.90;;;;;;5129028;28;20184;-73
2024/01/07 07:13:08;;;;;;;20.47;14.50;;;3.70;99.90;;;;;;5093542;28;20188;-74
2024/01/07 07:15:34;;;;;;;20.80;15.30;;;3.70;99.90;;;;;;5128837;27;20180;-74
2024/01/07 07:17:59;;;;;;;22.30;14.67;;;3.70;99.90;;;;;;5128882;28;20436;-73
2024/01/07 07:20:25;;;;;;;29.87;16.07;;;3.70;99.90;;;;;;5128690;27;20183;-73
2024/01/07 07:22:51;;;;;;;26.83;15.80;;;3.70;99.90;;;;;;5128984;28;20180;-73
2024/01/07 07:25:16;;;;;;;24.97;14.97;;;3.80;99.90;;;;;;5110149;28;20195;-72
2024/01/07 07:27:43;;;;;;;31.30;16.33;;;3.80;99.90;;;;;;5110421;28;20747;-74
2024/01/07 07:30:09;;;;;;;23.67;14.75;;;3.80;99.90;;;;;;5110505;28;20254;-73
2024/01/07 07:32:35;;;;;;;25.97;17.03;;;3.70;99.90;;;;;;5128942;28;20215;-73
2024/01/07 07:35:01;;;;;;;28.10;17.20;;;3.80;99.90;;;;;;5110322;27;20696;-74
2024/01/07 07:37:26;;;;;;;27.90;16.70;;;3.80;99.90;;;;;;5113511;27;20480;-73
2024/01/07 07:39:52;;;;;;;26.37;16.43;;;3.80;99.90;;;;;;5114359;27;20664;-73
2024/01/07 07:42:17;;;;;;;26.07;15.90;;;3.80;99.90;;;;;;5114205;27;20270;-74
2024/01/07 07:44:43;;;;;;;30.13;16.40;;;3.80;99.90;;;;;;5132120;27;20179;-73
2024/01/07 07:47:11;;;;;;;24.53;15.57;;;3.80;99.90;;;;;;5132192;27;20577;-74
2024/01/07 07:49:39;;;;;;;27.85;16.27;;;3.70;99.90;;;;;;5113401;27;20189;-74
2024/01/07 07:52:14;;;;;;;26.60;13.60;;;3.70;99.90;;;;;;5132401;27;20177;-73
2024/01/07 07:54:39;;;;;;;22.30;15.40;;;3.70;99.90;;;;;;5097752;27;21279;-74
2024/01/07 07:57:05;;;;;;;28.97;16.80;;;3.70;99.90;;;;;;5132113;27;20222;-73
2024/01/07 07:59:31;;;;;;;25.90;16.63;;;3.70;99.90;;;;;;5131938;27;20183;-73
2024/01/07 08:01:56;;;;;;;22.70;15.67;;;3.70;99.90;;;;;;5113574;27;20714;-73
2024/01/07 08:04:22;;;;;;;26.27;15.70;;;3.70;99.90;;;;;;5131849;27;20184;-73
2024/01/07 08:06:48;;;;;;;26.00;16.53;;;3.70;99.90;;;;;;5113222;27;20209;-73
2024/01/07 08:09:13;;;;;;;27.10;15.97;;;3.80;99.90;;;;;;5096274;27;20202;-73
2024/01/07 08:11:39;;;;;;;28.83;17.67;;;3.70;99.90;;;;;;5113143;27;20190;-73
2024/01/07 08:14:05;;;;;;;30.50;17.47;;;3.70;99.90;;;;;;5131675;27;20270;-73
2024/01/07 08:16:31;;;;;;;25.23;15.18;;;3.80;99.90;;;;;;5131729;27;20311;-73
2024/01/07 08:18:57;;;;;;;26.93;15.47;;;3.80;99.90;;;;;;5131737;27;20271;-73
2024/01/07 08:21:23;;;;;;;21.50;14.23;;;3.80;99.90;;;;;;5112634;27;20815;-73
2024/01/07 08:23:49;;;;;;;20.50;12.63;;;3.70;99.90;;;;;;5111600;27;20178;-73
2024/01/07 08:26:21;;;;;;;24.50;12.77;;;3.70;99.90;;;;;;5111380;27;20326;-73
2024/01/07 08:28:46;;;;;;;16.80;12.27;;;3.60;99.90;;;;;;5111535;27;20414;-73
2024/01/07 08:31:12;;;;;;;16.47;11.03;;;3.50;99.90;;;;;;5130117;27;20487;-73
2024/01/07 08:33:38;;;;;;;23.40;11.00;;;3.50;99.90;;;;;;5129862;27;20640;-73
2024/01/07 08:36:04;;;;;;;18.57;12.57;;;3.40;99.90;;;;;;5111272;27;20207;-73
2024/01/07 08:38:31;;;;;;;15.30;10.52;;;3.40;99.90;;;;;;5129657;27;20444;-73
2024/01/07 08:40:56;;;;;;;15.43;10.90;;;3.30;99.90;;;;;;5094137;27;20243;-73
2024/01/07 08:43:22;;;;;;;20.90;12.10;;;3.40;99.90;;;;;;5129880;27;20191;-73
2024/01/07 08:45:48;;;;;;;20.57;12.50;;;3.30;99.90;;;;;;5129940;27;20195;-73
2024/01/07 08:48:13;;;;;;;15.20;10.97;;;3.30;99.90;;;;;;5129914;27;20235;-73
2024/01/07 08:50:39;;;;;;;18.30;10.90;;;3.30;99.90;;;;;;5111570;27;20210;-73
2024/01/07 08:53:05;;;;;;;18.10;10.87;;;3.30;99.90;;;;;;5130419;27;20186;-74
2024/01/07 08:55:30;;;;;;;18.30;11.50;;;3.20;99.90;;;;;;5111563;27;20247;-74
2024/01/07 08:57:56;;;;;;;15.30;10.70;;;3.30;99.90;;;;;;5130244;27;20572;-73
2024/01/07 09:00:25;;;;;;;19.63;11.47;;;3.20;99.90;;;;;;5129906;27;20418;-73
2024/01/07 09:02:51;;;;;;;17.58;10.50;;;3.20;99.90;;;;;;5111803;27;20179;-74
2024/01/07 09:05:17;;;;;;;20.88;12.90;;;3.20;99.90;;;;;;5129533;27;20175;-73
2024/01/07 09:07:43;;;;;;;18.80;11.97;;;3.20;99.90;;;;;;5129371;27;20206;-73
2024/01/07 09:10:10;;;;;;;17.07;11.93;;;3.20;99.90;;;;;;5093708;27;20189;-73
2024/01/07 09:12:37;;;;;;;15.70;10.73;;;3.20;99.90;;;;;;5111227;27;20197;-73
2024/01/07 09:15:04;;;;;;;19.13;12.17;;;3.30;99.90;;;;;;5129434;27;20808;-73
2024/01/07 09:17:31;;;;;;;61.33;38.50;;;3.30;99.90;;;;;;5110560;27;20476;-74
2024/01/07 09:19:56;;;;;;;32.88;24.10;;;3.20;99.90;;;;;;5110612;27;20462;-73
2024/01/07 09:22:22;;;;;;;21.73;13.43;;;3.30;99.90;;;;;;5129005;27;20191;-73
2024/01/07 09:24:47;;;;;;;58.13;50.03;;;3.20;99.90;;;;;;5110395;27;20182;-73
2024/01/07 09:27:14;;;;;;;26.27;20.13;;;3.20;99.90;;;;;;5129057;27;20638;-71
2024/01/07 09:29:39;;;;;;;154.18;95.35;;;3.10;99.90;;;;;;5093425;27;20195;-74
2024/01/07 09:32:05;;;;;;;459.60;159.20;;;3.10;99.90;;;;;;5128732;27;20275;-73
2024/01/07 09:34:31;;;;;;;421.70;142.85;;;3.10;99.90;;;;;;5109937;27;20194;-74
2024/01/07 09:36:57;;;;;;;274.97;86.07;;;3.10;99.90;;;;;;5128611;27;20241;-73
2024/01/07 09:39:22;;;;;;;207.10;61.57;;;3.00;99.90;;;;;;5110066;27;20277;-74
2024/01/07 09:41:48;;;;;;;112.53;66.40;;;2.90;99.90;;;;;;5093269;27;20185;-74
2024/01/07 09:44:13;;;;;;;606.33;221.60;;;2.90;99.90;;;;;;5093272;27;20219;-74
2024/01/07 09:46:41;;;;;;;194.00;50.70;;;2.90;99.90;;;;;;5128719;27;20210;-73
2024/01/07 09:49:07;;;;;;;234.85;66.45;;;2.80;99.90;;;;;;5128596;27;20191;-73
2024/01/07 09:51:37;;;;;;;91.53;32.37;;;2.80;99.90;;;;;;5129089;27;20183;-73
2024/01/07 09:54:04;;;;;;;199.82;57.88;;;2.80;99.90;;;;;;5110289;27;20186;-73
2024/01/07 09:56:40;;;;;;;121.63;36.35;;;2.90;99.90;;;;;;5129073;27;20235;-73
2024/01/07 09:59:07;;;;;;;157.15;45.22;;;2.80;99.90;;;;;;5110003;27;20178;-73
2024/01/07 10:01:35;;;;;;;397.73;151.88;;;2.80;99.90;;;;;;5110801;28;20183;-73
2024/01/07 10:04:01;;;;;;;79.40;33.28;;;2.70;99.90;;;;;;5110326;27;20185;-73
2024/01/07 10:06:27;;;;;;;615.47;162.77;;;2.70;99.90;;;;;;5109957;27;20206;-73
2024/01/07 10:08:52;;;;;;;289.83;65.27;;;2.70;99.90;;;;;;5109933;27;20424;-73
2024/01/07 10:11:18;;;;;;;151.90;43.63;;;2.80;99.90;;;;;;5109983;27;20189;-73
2024/01/07 10:13:51;;;;;;;100.67;36.33;;;2.70;99.90;;;;;;5109450;27;20210;-73
2024/01/07 10:16:17;;;;;;;291.95;85.07;;;2.70;99.90;;;;;;5127751;27;20965;-73
2024/01/07 10:18:43;;;;;;;44.90;20.40;;;2.70;99.90;;;;;;5127716;27;20260;-73
2024/01/07 10:21:08;;;;;;;86.23;27.53;;;2.60;99.90;;;;;;5127859;27;20183;-73
2024/01/07 10:23:34;;;;;;;71.33;26.33;;;2.60;99.90;;;;;;5109503;28;20273;-73
2024/01/07 10:26:02;;;;;;;292.10;153.70;;;2.60;99.90;;;;;;5127894;27;20197;-73
2024/01/07 10:28:27;;;;;;;532.93;267.77;;;2.50;99.90;;;;;;5127899;27;20202;-73
2024/01/07 10:30:53;;;;;;;771.47;237.57;;;2.40;99.90;;;;;;5109539;28;20428;-73
2024/01/07 10:33:19;;;;;;;162.47;38.93;;;2.40;99.90;;;;;;5109291;28;20661;-72
2024/01/07 10:35:55;;;;;;;148.80;37.53;;;2.40;99.90;;;;;;5109046;28;20194;-73
2024/01/07 10:38:21;;;;;;;176.45;44.75;;;2.40;99.90;;;;;;5128341;28;20206;-73
2024/01/07 10:40:49;;;;;;;648.58;200.90;;;2.40;99.90;;;;;;5109716;28;20179;-72
2024/01/07 10:43:16;;;;;;;227.57;55.72;;;2.30;99.90;;;;;;5109286;28;20278;-72
2024/01/07 10:45:47;;;;;;;444.63;233.90;;;2.30;99.90;;;;;;5127923;28;20229;-72
2024/01/07 10:48:17;;;;;;;516.33;302.67;;;2.40;99.90;;;;;;5109462;28;20686;-73
2024/01/07 10:50:52;;;;;;;165.00;102.05;;;2.30;99.90;;;;;;5128068;28;20232;-72
2024/01/07 10:53:23;;;;;;;24.15;18.73;;;2.30;99.90;;;;;;5128157;28;20206;-72
2024/01/07 10:55:57;;;;;;;12.40;8.43;;;2.30;99.90;;;;;;5092773;28;20586;-72
2024/01/07 10:58:24;;;;;;;15.93;13.00;;;2.30;99.90;;;;;;5128231;28;20189;-72
2024/01/07 11:00:49;;;;;;;15.77;9.85;;;2.20;99.90;;;;;;5109869;28;20213;-72
2024/01/07 11:03:37;;;;;;;18.63;10.63;;;2.20;99.90;;;;;;5128355;28;20232;-73
2024/01/07 11:06:19;;;;;;;16.98;10.88;;;2.20;99.90;;;;;;5128141;28;20231;-72
2024/01/07 11:08:54;;;;;;;20.23;13.80;;;2.30;99.90;;;;;;5128496;28;20217;-72
2024/01/07 11:11:26;;;;;;;105.82;49.15;;;2.30;99.90;;;;;;5130472;27;20170;-71
2024/01/07 11:13:52;;;;;;;1902.80;920.10;;;2.20;99.90;;;;;;5131922;27;20240;-72
2024/01/07 11:16:41;;;;;;;1999.90;999.90;;;2.30;99.90;;;;;;5131618;27;20202;-71
2024/01/07 11:19:07;;;;;;;967.15;551.28;;;2.30;99.90;;;;;;5118603;27;20194;-72
2024/01/07 11:21:32;;;;;;;682.87;357.40;;;2.30;99.90;;;;;;5096061;27;20236;-72
2024/01/07 11:23:58;;;;;;;251.93;103.07;;;2.30;99.90;;;;;;5131234;27;20189;-72
2024/01/07 11:26:24;;;;;;;603.93;303.80;;;2.20;99.90;;;;;;5131459;27;20194;-72
2024/01/07 11:28:51;;;;;;;636.70;331.87;;;2.20;99.90;;;;;;5131359;27;20180;-72
2024/01/07 11:31:19;;;;;;;963.60;552.75;;;2.20;99.90;;;;;;5130935;27;20970;-72
2024/01/07 11:33:49;;;;;;;560.88;272.67;;;2.30;99.90;;;;;;5112341;27;20193;-72
2024/01/07 11:36:18;;;;;;;359.30;133.75;;;2.30;99.90;;;;;;5112264;27;20245;-72
2024/01/07 11:38:45;;;;;;;507.95;215.00;;;2.20;99.90;;;;;;5131131;27;20270;-72
2024/01/07 11:41:15;;;;;;;475.17;185.32;;;2.20;99.90;;;;;;5112407;27;20191;-72
2024/01/07 11:43:59;;;;;;;610.05;273.42;;;2.20;99.90;;;;;;5112305;27;20183;-71
2024/01/07 11:46:25;;;;;;;1999.90;999.90;;;2.30;99.90;;;;;;5112626;27;20173;-72
2024/01/07 11:48:58;;;;;;;505.40;222.52;;;2.30;99.90;;;;;;5131049;27;20290;-71
2024/01/07 11:51:28;;;;;;;843.17;455.77;;;2.30;99.90;;;;;;5130686;27;20192;-73
2024/01/07 11:53:54;;;;;;;901.10;543.80;;;2.30;99.90;;;;;;5130757;27;20185;-72
2024/01/07 11:56:20;;;;;;;748.90;480.87;;;2.30;99.90;;;;;;5130356;27;20244;-73
2024/01/07 11:58:46;;;;;;;160.40;79.87;;;2.40;99.90;;;;;;5111898;27;20510;-72
2024/01/07 12:01:14;;;;;;;21.70;14.27;;;2.40;99.90;;;;;;5112206;27;20419;-72
2024/01/07 12:03:41;;;;;;;29.70;20.83;;;2.30;99.90;;;;;;5111735;27;20175;-72
2024/01/07 12:06:07;;;;;;;59.88;50.63;;;2.20;99.90;;;;;;5111800;27;20743;-72
2024/01/07 12:08:32;;;;;;;33.63;26.10;;;2.30;99.90;;;;;;5111640;27;20279;-72
2024/01/07 12:10:59;;;;;;;42.60;30.97;;;2.20;99.90;;;;;;5111638;27;20420;-73
2024/01/07 12:13:25;;;;;;;27.92;21.67;;;2.20;99.90;;;;;;5111702;27;20178;-72
2024/01/07 12:15:51;;;;;;;28.38;24.27;;;2.20;99.90;;;;;;5130258;27;20915;-72
2024/01/07 12:18:17;;;;;;;16.00;10.63;;;2.30;99.90;;;;;;5111476;27;20232;-73
2024/01/07 12:20:58;;;;;;;15.17;10.47;;;2.20;99.90;;;;;;5094271;27;20210;-72
2024/01/07 12:23:24;;;;;;;12.15;9.68;;;2.30;99.90;;;;;;5130704;27;20265;-73
2024/01/07 12:25:50;;;;;;;16.13;9.80;;;2.40;99.90;;;;;;5112663;27;20295;-73
2024/01/07 12:28:18;;;;;;;17.43;13.20;;;2.30;99.90;;;;;;5131335;27;20266;-71